sensor_id;sensor_type;location;lat;lon;timestamp;pressure;altitude;pressure_sealevel;temperature;humidity
6974;BME280;3527;52.376;8.990;2023-08-01T00:00:17;99683.38;;;16.69;100.00
6974;BME280;3527;52.376;8.990;2023-08-01T00:02:44;99681.72;;;16.72;100.00
6974;BME280;3527;52.376;8.990;2023-08-01T00:05:11;99687.38;;;16.72;100.00
6974;BME280;3527;52.376;8.990;2023-08-01T00:07:38;99686.47;;;16.75;100.00
6974;BME280;3527;52.376;8.990;2023-08-01T00:10:06;99680.06;;;16.74;100.00
6974;BME280;3527;52.376;8.990;2023-08-01T00:12:32;99676.50;;;16.86;100.00
6974;BME280;3527;52.376;8.990;2023-08-01T00:14:59;99669.38;;;16.82;100.00
6974;BME280;3527;52.376;8.990;2023-08-01T00:17:26;99671.75;;;16.83;100.00
6974;BME280;3527;52.376;8.990;2023-08-01T00:19:53;99667.72;;;16.84;100.00
6974;BME280;3527;52.376;8.990;2023-08-01T00:22:21;99661.19;;;16.87;100.00
6974;BME280;3527;52.376;8.990;2023-08-01T00:24:48;99665.25;;;16.86;100.00
6974;BME280;3527;52.376;8.990;2023-08-01T00:27:15;99658.38;;;16.87;100.00
6974;BME280;3527;52.376;8.990;2023-08-01T00:29:42;99646.75;;;16.85;100.00
6974;BME280;3527;52.376;8.990;2023-08-01T00:32:09;99647.88;;;16.88;100.00
6974;BME280;3527;52.376;8.990;2023-08-01T00:34:36;99645.06;;;16.88;100.00
6974;BME280;3527;52.376;8.990;2023-08-01T00:37:03;99640.22;;;16.88;100.00
6974;BME280;3527;52.376;8.990;2023-08-01T00:39:30;99640.81;;;16.96;100.00
6974;BME280;3527;52.376;8.990;2023-08-01T00:41:58;99644.06;;;16.94;100.00
6974;BME280;3527;52.376;8.990;2023-08-01T00:44:25;99645.66;;;16.95;100.00
6974;BME280;3527;52.376;8.990;2023-08-01T00:46:51;99644.97;;;16.91;100.00
6974;BME280;3527;52.376;8.990;2023-08-01T00:49:18;99637.03;;;16.86;100.00
6974;BME280;3527;52.376;8.990;2023-08-01T00:51:46;99637.84;;;16.87;100.00
6974;BME280;3527;52.376;8.990;2023-08-01T00:54:14;99641.78;;;16.89;100.00
6974;BME280;3527;52.376;8.990;2023-08-01T00:56:41;99624.09;;;16.89;100.00
6974;BME280;3527;52.376;8.990;2023-08-01T00:59:08;99620.47;;;16.88;100.00
6974;BME280;3527;52.376;8.990;2023-08-01T01:01:35;99633.78;;;16.88;100.00
6974;BME280;3527;52.376;8.990;2023-08-01T01:04:03;99637.03;;;16.86;100.00
6974;BME280;3527;52.376;8.990;2023-08-01T01:06:40;99635.38;;;16.89;100.00
6974;BME280;3527;52.376;8.990;2023-08-01T01:09:18;99635.47;;;16.85;100.00
6974;BME280;3527;52.376;8.990;2023-08-01T01:11:45;99636.94;;;16.90;100.00
6974;BME280;3527;52.376;8.990;2023-08-01T01:14:18;99642.09;;;16.79;100.00
6974;BME280;3527;52.376;8.990;2023-08-01T01:16:45;99638.28;;;16.69;100.00
6974;BME280;3527;52.376;8.990;2023-08-01T01:19:12;99632.28;;;16.67;100.00
6974;BME280;3527;52.376;8.990;2023-08-01T01:22:16;99619.94;;;16.61;100.00
6974;BME280;3527;52.376;8.990;2023-08-01T01:24:44;99602.50;;;16.50;100.00
6974;BME280;3527;52.376;8.990;2023-08-01T01:27:12;99603.41;;;16.47;100.00
6974;BME280;3527;52.376;8.990;2023-08-01T01:29:40;99595.88;;;16.40;100.00
6974;BME280;3527;52.376;8.990;2023-08-01T01:32:09;99587.88;;;16.38;100.00
6974;BME280;3527;52.376;8.990;2023-08-01T01:34:36;99578.97;;;16.40;100.00
6974;BME280;3527;52.376;8.990;2023-08-01T01:37:03;99576.59;;;16.38;100.00
6974;BME280;3527;52.376;8.990;2023-08-01T01:39:30;99568.53;;;16.24;100.00
6974;BME280;3527;52.376;8.990;2023-08-01T01:41:57;99573.34;;;16.24;100.00
6974;BME280;3527;52.376;8.990;2023-08-01T01:44:24;99572.56;;;16.23;100.00
6974;BME280;3527;52.376;8.990;2023-08-01T01:46:50;99581.81;;;16.24;100.00
6974;BME280;3527;52.376;8.990;2023-08-01T01:49:17;99585.41;;;16.24;100.00
6974;BME280;3527;52.376;8.990;2023-08-01T01:51:44;99572.91;;;16.25;100.00
6974;BME280;3527;52.376;8.990;2023-08-01T01:54:11;99566.22;;;16.19;100.00
6974;BME280;3527;52.376;8.990;2023-08-01T01:56:37;99558.22;;;16.18;100.00
6974;BME280;3527;52.376;8.990;2023-08-01T01:59:04;99562.34;;;16.13;100.00
6974;BME280;3527;52.376;8.990;2023-08-01T02:01:31;99558.81;;;16.09;100.00
6974;BME280;3527;52.376;8.990;2023-08-01T02:03:58;99562.41;;;16.10;100.00
6974;BME280;3527;52.376;8.990;2023-08-01T02:06:28;99552.03;;;16.06;100.00
6974;BME280;3527;52.376;8.990;2023-08-01T02:08:54;99556.19;;;16.02;100.00
6974;BME280;3527;52.376;8.990;2023-08-01T02:11:21;99557.06;;;15.99;100.00
6974;BME280;3527;52.376;8.990;2023-08-01T02:13:48;99544.56;;;16.00;100.00
6974;BME280;3527;52.376;8.990;2023-08-01T02:16:15;99550.53;;;16.02;100.00
6974;BME280;3527;52.376;8.990;2023-08-01T02:18:42;99549.56;;;15.92;100.00
6974;BME280;3527;52.376;8.990;2023-08-01T02:21:08;99558.00;;;15.92;100.00
6974;BME280;3527;52.376;8.990;2023-08-01T02:23:35;99559.16;;;15.95;100.00
6974;BME280;3527;52.376;8.990;2023-08-01T02:26:04;99547.69;;;15.86;100.00
6974;BME280;3527;52.376;8.990;2023-08-01T02:28:30;99537.88;;;15.94;100.00
6974;BME280;3527;52.376;8.990;2023-08-01T02:30:57;99529.00;;;15.95;100.00
6974;BME280;3527;52.376;8.990;2023-08-01T02:33:24;99527.84;;;15.93;100.00
6974;BME280;3527;52.376;8.990;2023-08-01T02:35:51;99513.06;;;15.89;100.00
6974;BME280;3527;52.376;8.990;2023-08-01T02:38:18;99511.63;;;15.81;100.00
6974;BME280;3527;52.376;8.990;2023-08-01T02:40:45;99493.06;;;15.67;100.00
6974;BME280;3527;52.376;8.990;2023-08-01T02:43:11;99491.03;;;15.67;100.00
6974;BME280;3527;52.376;8.990;2023-08-01T02:45:38;99499.03;;;15.69;100.00
6974;BME280;3527;52.376;8.990;2023-08-01T02:48:05;99504.94;;;15.74;100.00
6974;BME280;3527;52.376;8.990;2023-08-01T02:50:32;99492.28;;;15.66;100.00
6974;BME280;3527;52.376;8.990;2023-08-01T02:52:59;99489.97;;;15.61;100.00
6974;BME280;3527;52.376;8.990;2023-08-01T02:55:26;99498.84;;;15.60;100.00
6974;BME280;3527;52.376;8.990;2023-08-01T02:57:52;99489.47;;;15.66;100.00
6974;BME280;3527;52.376;8.990;2023-08-01T03:00:19;99487.97;;;15.62;100.00
6974;BME280;3527;52.376;8.990;2023-08-01T03:02:46;99489.22;;;15.57;100.00
6974;BME280;3527;52.376;8.990;2023-08-01T03:05:13;99496.00;;;15.60;100.00
6974;BME280;3527;52.376;8.990;2023-08-01T03:07:40;99487.97;;;15.62;100.00
6974;BME280;3527;52.376;8.990;2023-08-01T03:10:07;99481.66;;;15.54;100.00
6974;BME280;3527;52.376;8.990;2023-08-01T03:12:37;99476.38;;;15.56;100.00
6974;BME280;3527;52.376;8.990;2023-08-01T03:15:04;99473.66;;;15.53;100.00
6974;BME280;3527;52.376;8.990;2023-08-01T03:17:31;99473.56;;;15.56;100.00
6974;BME280;3527;52.376;8.990;2023-08-01T03:19:58;99469.53;;;15.57;100.00
6974;BME280;3527;52.376;8.990;2023-08-01T03:22:25;99471.13;;;15.58;100.00
6974;BME280;3527;52.376;8.990;2023-08-01T03:24:52;99473.13;;;15.58;100.00
6974;BME280;3527;52.376;8.990;2023-08-01T03:27:19;99483.22;;;15.55;100.00
6974;BME280;3527;52.376;8.990;2023-08-01T03:29:45;99476.91;;;15.51;100.00
6974;BME280;3527;52.376;8.990;2023-08-01T03:32:12;99486.78;;;15.59;100.00
6974;BME280;3527;52.376;8.990;2023-08-01T03:34:39;99484.81;;;15.56;100.00
6974;BME280;3527;52.376;8.990;2023-08-01T03:37:07;99499.28;;;15.58;100.00
6974;BME280;3527;52.376;8.990;2023-08-01T03:39:34;99490.19;;;15.51;100.00
6974;BME280;3527;52.376;8.990;2023-08-01T03:42:01;99488.94;;;15.52;100.00
6974;BME280;3527;52.376;8.990;2023-08-01T03:44:28;99488.94;;;15.52;100.00
6974;BME280;3527;52.376;8.990;2023-08-01T03:46:55;99491.56;;;15.62;100.00
6974;BME280;3527;52.376;8.990;2023-08-01T03:49:22;99491.22;;;15.57;100.00
6974;BME280;3527;52.376;8.990;2023-08-01T03:51:49;99487.63;;;15.56;100.00
6974;BME280;3527;52.376;8.990;2023-08-01T03:54:17;99491.69;;;15.55;100.00
6974;BME280;3527;52.376;8.990;2023-08-01T03:56:44;99486.56;;;15.50;100.00
6974;BME280;3527;52.376;8.990;2023-08-01T03:59:13;99492.19;;;15.50;100.00
6974;BME280;3527;52.376;8.990;2023-08-01T04:01:40;99491.31;;;15.53;100.00
6974;BME280;3527;52.376;8.990;2023-08-01T04:04:08;99497.03;;;15.50;100.00
6974;BME280;3527;52.376;8.990;2023-08-01T04:06:35;99490.44;;;15.56;100.00
6974;BME280;3527;52.376;8.990;2023-08-01T04:09:02;99501.00;;;15.52;100.00
6974;BME280;3527;52.376;8.990;2023-08-01T04:11:29;99500.91;;;15.56;100.00
6974;BME280;3527;52.376;8.990;2023-08-01T04:14:16;99495.22;;;15.59;100.00
6974;BME280;3527;52.376;8.990;2023-08-01T04:17:03;99490.88;;;15.55;100.00
6974;BME280;3527;52.376;8.990;2023-08-01T04:19:37;99488.84;;;15.55;100.00
6974;BME280;3527;52.376;8.990;2023-08-01T04:22:24;99494.50;;;15.55;100.00
6974;BME280;3527;52.376;8.990;2023-08-01T04:25:13;99492.81;;;15.58;100.00
6974;BME280;3527;52.376;8.990;2023-08-01T04:28:00;99489.72;;;15.52;100.00
6974;BME280;3527;52.376;8.990;2023-08-01T04:30:34;99479.19;;;15.56;100.00
6974;BME280;3527;52.376;8.990;2023-08-01T04:33:21;99484.81;;;15.56;100.00
6974;BME280;3527;52.376;8.990;2023-08-01T04:35:49;99491.19;;;15.60;100.00
6974;BME280;3527;52.376;8.990;2023-08-01T04:38:37;99487.28;;;15.54;100.00
6974;BME280;3527;52.376;8.990;2023-08-01T04:41:07;99479.97;;;15.57;100.00
6974;BME280;3527;52.376;8.990;2023-08-01T04:43:54;99485.56;;;15.60;100.00
6974;BME280;3527;52.376;8.990;2023-08-01T04:46:21;99469.75;;;15.66;100.00
6974;BME280;3527;52.376;8.990;2023-08-01T04:48:48;99484.38;;;15.77;100.00
6974;BME280;3527;52.376;8.990;2023-08-01T04:51:14;99487.53;;;15.80;100.00
6974;BME280;3527;52.376;8.990;2023-08-01T04:53:41;99482.94;;;15.69;100.00
6974;BME280;3527;52.376;8.990;2023-08-01T04:56:08;99486.19;;;15.68;100.00
6974;BME280;3527;52.376;8.990;2023-08-01T04:58:35;99476.88;;;15.71;100.00
6974;BME280;3527;52.376;8.990;2023-08-01T05:01:03;99484.38;;;15.77;100.00
6974;BME280;3527;52.376;8.990;2023-08-01T05:03:30;99479.97;;;15.76;100.00
6974;BME280;3527;52.376;8.990;2023-08-01T05:05:57;99496.53;;;15.91;100.00
6974;BME280;3527;52.376;8.990;2023-08-01T05:08:24;99497.91;;;15.83;100.00
6974;BME280;3527;52.376;8.990;2023-08-01T05:10:51;99478.91;;;15.70;100.00
6974;BME280;3527;52.376;8.990;2023-08-01T05:13:18;99487.69;;;15.72;100.00
6974;BME280;3527;52.376;8.990;2023-08-01T05:15:46;99481.91;;;15.80;100.00
6974;BME280;3527;52.376;8.990;2023-08-01T05:18:16;99487.72;;;15.89;100.00
6974;BME280;3527;52.376;8.990;2023-08-01T05:20:43;99488.22;;;15.84;100.00
6974;BME280;3527;52.376;8.990;2023-08-01T05:23:10;99483.41;;;15.84;100.00
6974;BME280;3527;52.376;8.990;2023-08-01T05:25:37;99493.84;;;15.84;100.00
6974;BME280;3527;52.376;8.990;2023-08-01T05:28:04;99487.34;;;15.87;100.00
6974;BME280;3527;52.376;8.990;2023-08-01T05:30:31;99485.28;;;15.91;100.00
6974;BME280;3527;52.376;8.990;2023-08-01T05:32:57;99484.56;;;16.03;100.00
6974;BME280;3527;52.376;8.990;2023-08-01T05:35:24;99496.53;;;16.23;100.00
6974;BME280;3527;52.376;8.990;2023-08-01T05:37:53;99489.75;;;16.21;100.00
6974;BME280;3527;52.376;8.990;2023-08-01T05:40:20;99491.25;;;16.25;100.00
6974;BME280;3527;52.376;8.990;2023-08-01T05:42:47;99494.56;;;16.36;100.00
6974;BME280;3527;52.376;8.990;2023-08-01T05:45:14;99493.06;;;16.32;100.00
6974;BME280;3527;52.376;8.990;2023-08-01T05:47:41;99494.03;;;16.42;100.00
6974;BME280;3527;52.376;8.990;2023-08-01T05:50:08;99490.97;;;16.36;100.00
6974;BME280;3527;52.376;8.990;2023-08-01T05:52:36;99490.59;;;16.34;100.00
6974;BME280;3527;52.376;8.990;2023-08-01T05:55:03;99497.03;;;16.34;100.00
6974;BME280;3527;52.376;8.990;2023-08-01T05:57:30;99485.75;;;16.51;100.00
6974;BME280;3527;52.376;8.990;2023-08-01T05:59:57;99484.66;;;16.61;100.00
6974;BME280;3527;52.376;8.990;2023-08-01T06:02:23;99491.97;;;16.58;100.00
6974;BME280;3527;52.376;8.990;2023-08-01T06:04:50;99484.88;;;16.54;100.00
6974;BME280;3527;52.376;8.990;2023-08-01T06:07:17;99492.50;;;16.69;100.00
6974;BME280;3527;52.376;8.990;2023-08-01T06:09:50;99489.78;;;16.66;100.00
6974;BME280;3527;52.376;8.990;2023-08-01T06:12:20;99491.34;;;16.83;100.00
6974;BME280;3527;52.376;8.990;2023-08-01T06:14:48;99491.44;;;16.80;100.00
6974;BME280;3527;52.376;8.990;2023-08-01T06:17:15;99492.03;;;16.87;100.00
6974;BME280;3527;52.376;8.990;2023-08-01T06:19:42;99494.19;;;16.96;100.00
6974;BME280;3527;52.376;8.990;2023-08-01T06:22:09;99482.63;;;17.07;100.00
6974;BME280;3527;52.376;8.990;2023-08-01T06:24:36;99482.31;;;17.17;100.00
6974;BME280;3527;52.376;8.990;2023-08-01T06:27:03;99484.00;;;17.15;100.00
6974;BME280;3527;52.376;8.990;2023-08-01T06:29:29;99478.13;;;17.22;100.00
6974;BME280;3527;52.376;8.990;2023-08-01T06:31:56;99483.78;;;17.22;100.00
6974;BME280;3527;52.376;8.990;2023-08-01T06:34:23;99484.09;;;17.11;100.00
6974;BME280;3527;52.376;8.990;2023-08-01T06:36:51;99484.34;;;17.17;100.00
6974;BME280;3527;52.376;8.990;2023-08-01T06:39:18;99480.50;;;17.11;100.00
6974;BME280;3527;52.376;8.990;2023-08-01T06:41:45;99475.41;;;17.06;100.00
6974;BME280;3527;52.376;8.990;2023-08-01T06:44:13;99481.16;;;17.15;100.00
6974;BME280;3527;52.376;8.990;2023-08-01T06:46:40;99478.22;;;17.06;100.00
6974;BME280;3527;52.376;8.990;2023-08-01T06:49:07;99480.19;;;16.92;100.00
6974;BME280;3527;52.376;8.990;2023-08-01T06:51:34;99488.50;;;17.12;100.00
6974;BME280;3527;52.376;8.990;2023-08-01T06:54:00;99485.84;;;17.34;100.00
6974;BME280;3527;52.376;8.990;2023-08-01T06:56:27;99479.41;;;17.46;100.00
6974;BME280;3527;52.376;8.990;2023-08-01T06:58:54;99481.78;;;17.48;100.00
6974;BME280;3527;52.376;8.990;2023-08-01T07:01:21;99480.66;;;17.45;100.00
6974;BME280;3527;52.376;8.990;2023-08-01T07:03:49;99473.34;;;17.60;100.00
6974;BME280;3527;52.376;8.990;2023-08-01T07:06:19;99471.09;;;17.55;100.00
6974;BME280;3527;52.376;8.990;2023-08-01T07:08:46;99478.47;;;17.91;100.00
6974;BME280;3527;52.376;8.990;2023-08-01T07:11:12;99469.97;;;18.04;100.00
6974;BME280;3527;52.376;8.990;2023-08-01T07:13:39;99470.19;;;18.09;100.00
6974;BME280;3527;52.376;8.990;2023-08-01T07:16:06;99464.63;;;18.18;100.00
6974;BME280;3527;52.376;8.990;2023-08-01T07:18:33;99461.72;;;18.09;100.00
6974;BME280;3527;52.376;8.990;2023-08-01T07:21:04;99461.50;;;18.04;100.00
6974;BME280;3527;52.376;8.990;2023-08-01T07:23:33;99458.44;;;18.11;100.00
6974;BME280;3527;52.376;8.990;2023-08-01T07:26:01;99453.81;;;18.04;100.00
6974;BME280;3527;52.376;8.990;2023-08-01T07:28:29;99463.72;;;18.21;100.00
6974;BME280;3527;52.376;8.990;2023-08-01T07:31:03;99455.78;;;18.42;100.00
6974;BME280;3527;52.376;8.990;2023-08-01T07:33:32;99459.47;;;18.64;100.00
6974;BME280;3527;52.376;8.990;2023-08-01T07:36:00;99456.69;;;18.73;100.00
6974;BME280;3527;52.376;8.990;2023-08-01T07:38:26;99453.28;;;18.78;100.00
6974;BME280;3527;52.376;8.990;2023-08-01T07:40:57;99464.78;;;18.84;100.00
6974;BME280;3527;52.376;8.990;2023-08-01T07:43:26;99454.72;;;18.48;100.00
6974;BME280;3527;52.376;8.990;2023-08-01T07:45:58;99457.78;;;17.94;100.00
6974;BME280;3527;52.376;8.990;2023-08-01T07:48:26;99455.16;;;17.36;100.00
6974;BME280;3527;52.376;8.990;2023-08-01T07:51:23;99449.78;;;17.00;100.00
6974;BME280;3527;52.376;8.990;2023-08-01T07:54:44;99469.69;;;16.80;100.00
6974;BME280;3527;52.376;8.990;2023-08-01T07:57:11;99467.09;;;16.86;100.00
6974;BME280;3527;52.376;8.990;2023-08-01T07:59:38;99480.16;;;16.80;100.00
6974;BME280;3527;52.376;8.990;2023-08-01T08:02:12;99486.00;;;17.02;100.00
6974;BME280;3527;52.376;8.990;2023-08-01T08:04:39;99479.88;;;17.32;100.00
6974;BME280;3527;52.376;8.990;2023-08-01T08:07:06;99491.38;;;17.50;100.00
6974;BME280;3527;52.376;8.990;2023-08-01T08:09:33;99496.31;;;17.88;100.00
6974;BME280;3527;52.376;8.990;2023-08-01T08:18:29;99500.31;;;19.07;100.00
6974;BME280;3527;52.376;8.990;2023-08-01T08:20:56;99487.94;;;19.35;100.00
6974;BME280;3527;52.376;8.990;2023-08-01T08:23:23;99487.91;;;19.88;100.00
6974;BME280;3527;52.376;8.990;2023-08-01T08:25:49;99465.84;;;19.83;100.00
6974;BME280;3527;52.376;8.990;2023-08-01T08:28:30;99462.41;;;19.88;100.00
6974;BME280;3527;52.376;8.990;2023-08-01T08:30:58;99450.59;;;19.81;100.00
6974;BME280;3527;52.376;8.990;2023-08-01T08:33:26;99464.13;;;19.86;100.00
6974;BME280;3527;52.376;8.990;2023-08-01T08:35:53;99446.59;;;19.16;100.00
6974;BME280;3527;52.376;8.990;2023-08-01T08:38:20;99452.06;;;19.32;100.00
6974;BME280;3527;52.376;8.990;2023-08-01T08:41:11;99452.53;;;19.09;100.00
6974;BME280;3527;52.376;8.990;2023-08-01T08:43:41;99449.78;;;19.18;100.00
6974;BME280;3527;52.376;8.990;2023-08-01T08:46:08;99449.81;;;19.80;100.00
6974;BME280;3527;52.376;8.990;2023-08-01T08:48:36;99446.53;;;19.29;100.00
6974;BME280;3527;52.376;8.990;2023-08-01T08:51:07;99442.03;;;19.40;100.00
6974;BME280;3527;52.376;8.990;2023-08-01T08:53:35;99443.94;;;19.43;100.00
6974;BME280;3527;52.376;8.990;2023-08-01T08:56:03;99452.69;;;19.98;100.00
6974;BME280;3527;52.376;8.990;2023-08-01T08:58:30;99463.78;;;20.33;100.00
6974;BME280;3527;52.376;8.990;2023-08-01T09:01:00;99455.91;;;20.37;100.00
6974;BME280;3527;52.376;8.990;2023-08-01T09:03:28;99452.81;;;20.62;100.00
6974;BME280;3527;52.376;8.990;2023-08-01T09:06:24;99452.97;;;20.41;100.00
6974;BME280;3527;52.376;8.990;2023-08-01T09:08:56;99460.38;;;20.93;100.00
6974;BME280;3527;52.376;8.990;2023-08-01T09:11:25;99450.41;;;21.16;100.00
6974;BME280;3527;52.376;8.990;2023-08-01T09:13:52;99457.25;;;21.60;100.00
6974;BME280;3527;52.376;8.990;2023-08-01T09:16:19;99443.44;;;21.44;100.00
6974;BME280;3527;52.376;8.990;2023-08-01T09:18:48;99438.78;;;20.86;100.00
6974;BME280;3527;52.376;8.990;2023-08-01T09:21:20;99434.41;;;20.58;100.00
6974;BME280;3527;52.376;8.990;2023-08-01T09:23:47;99453.44;;;21.03;100.00
6974;BME280;3527;52.376;8.990;2023-08-01T09:26:15;99440.06;;;20.58;100.00
6974;BME280;3527;52.376;8.990;2023-08-01T09:28:42;99467.94;;;20.68;100.00
6974;BME280;3527;52.376;8.990;2023-08-01T09:31:10;99444.63;;;20.46;100.00
6974;BME280;3527;52.376;8.990;2023-08-01T09:33:41;99449.56;;;20.05;100.00
6974;BME280;3527;52.376;8.990;2023-08-01T09:36:08;99451.41;;;19.99;100.00
6974;BME280;3527;52.376;8.990;2023-08-01T09:38:36;99454.50;;;20.32;100.00
6974;BME280;3527;52.376;8.990;2023-08-01T09:41:04;99457.06;;;20.67;100.00
6974;BME280;3527;52.376;8.990;2023-08-01T09:43:35;99447.78;;;20.57;100.00
6974;BME280;3527;52.376;8.990;2023-08-01T09:46:03;99443.50;;;20.53;100.00
6974;BME280;3527;52.376;8.990;2023-08-01T09:48:30;99443.31;;;20.29;100.00
6974;BME280;3527;52.376;8.990;2023-08-01T09:51:06;99445.47;;;20.06;100.00
6974;BME280;3527;52.376;8.990;2023-08-01T09:53:34;99450.94;;;20.87;100.00
6974;BME280;3527;52.376;8.990;2023-08-01T09:56:01;99450.72;;;21.09;100.00
6974;BME280;3527;52.376;8.990;2023-08-01T09:58:33;99464.63;;;21.76;100.00
6974;BME280;3527;52.376;8.990;2023-08-01T10:01:01;99423.34;;;21.90;100.00
6974;BME280;3527;52.376;8.990;2023-08-01T10:03:28;99422.91;;;21.82;100.00
6974;BME280;3527;52.376;8.990;2023-08-01T10:05:56;99428.72;;;22.21;100.00
6974;BME280;3527;52.376;8.990;2023-08-01T10:08:25;99425.25;;;22.41;100.00
6974;BME280;3527;52.376;8.990;2023-08-01T10:10:52;99447.59;;;22.81;100.00
6974;BME280;3527;52.376;8.990;2023-08-01T10:13:23;99444.56;;;22.37;100.00
6974;BME280;3527;52.376;8.990;2023-08-01T10:15:51;99445.94;;;22.41;100.00
6974;BME280;3527;52.376;8.990;2023-08-01T10:18:19;99430.13;;;21.93;100.00
6974;BME280;3527;52.376;8.990;2023-08-01T10:20:47;99439.91;;;21.58;100.00
6974;BME280;3527;52.376;8.990;2023-08-01T10:23:15;99437.06;;;20.89;100.00
6974;BME280;3527;52.376;8.990;2023-08-01T10:25:45;99437.19;;;20.30;100.00
6974;BME280;3527;52.376;8.990;2023-08-01T10:28:13;99444.94;;;19.90;100.00
6974;BME280;3527;52.376;8.990;2023-08-01T10:30:39;99459.13;;;19.90;100.00
6974;BME280;3527;52.376;8.990;2023-08-01T10:33:06;99465.84;;;19.74;100.00
6974;BME280;3527;52.376;8.990;2023-08-01T10:35:39;99475.44;;;19.45;100.00
6974;BME280;3527;52.376;8.990;2023-08-01T10:38:09;99451.44;;;18.84;100.00
6974;BME280;3527;52.376;8.990;2023-08-01T10:40:41;99460.78;;;18.72;100.00
6974;BME280;3527;52.376;8.990;2023-08-01T10:43:27;99461.03;;;18.65;100.00
6974;BME280;3527;52.376;8.990;2023-08-01T10:46:03;99472.03;;;19.07;100.00
6974;BME280;3527;52.376;8.990;2023-08-01T10:48:31;99468.84;;;19.27;100.00
6974;BME280;3527;52.376;8.990;2023-08-01T10:50:58;99470.00;;;19.60;100.00
6974;BME280;3527;52.376;8.990;2023-08-01T10:53:25;99467.38;;;19.44;100.00
6974;BME280;3527;52.376;8.990;2023-08-01T10:55:52;99468.16;;;19.44;100.00
6974;BME280;3527;52.376;8.990;2023-08-01T10:58:19;99455.03;;;19.07;100.00
6974;BME280;3527;52.376;8.990;2023-08-01T11:00:45;99455.69;;;19.11;100.00
6974;BME280;3527;52.376;8.990;2023-08-01T11:03:12;99466.78;;;19.18;100.00
6974;BME280;3527;52.376;8.990;2023-08-01T11:05:39;99457.94;;;19.16;100.00
6974;BME280;3527;52.376;8.990;2023-08-01T11:08:06;99460.75;;;19.69;100.00
6974;BME280;3527;52.376;8.990;2023-08-01T11:10:33;99454.22;;;19.81;100.00
6974;BME280;3527;52.376;8.990;2023-08-01T11:13:00;99458.22;;;20.11;100.00
6974;BME280;3527;52.376;8.990;2023-08-01T11:15:27;99463.16;;;20.29;100.00
6974;BME280;3527;52.376;8.990;2023-08-01T11:17:54;99465.41;;;20.52;100.00
6974;BME280;3527;52.376;8.990;2023-08-01T11:20:23;99455.19;;;20.82;100.00
6974;BME280;3527;52.376;8.990;2023-08-01T11:22:57;99466.91;;;21.54;100.00
6974;BME280;3527;52.376;8.990;2023-08-01T11:25:37;99462.97;;;21.51;100.00
6974;BME280;3527;52.376;8.990;2023-08-01T11:28:13;99459.78;;;22.01;100.00
6974;BME280;3527;52.376;8.990;2023-08-01T11:30:40;99462.03;;;22.68;100.00
6974;BME280;3527;52.376;8.990;2023-08-01T11:33:14;99440.63;;;22.82;100.00
6974;BME280;3527;52.376;8.990;2023-08-01T11:35:41;99457.34;;;23.48;100.00
6974;BME280;3527;52.376;8.990;2023-08-01T11:38:08;99445.56;;;23.26;100.00
6974;BME280;3527;52.376;8.990;2023-08-01T11:40:35;99461.75;;;23.05;100.00
6974;BME280;3527;52.376;8.990;2023-08-01T11:43:03;99444.00;;;21.57;100.00
6974;BME280;3527;52.376;8.990;2023-08-01T11:45:30;99469.78;;;21.36;100.00
6974;BME280;3527;52.376;8.990;2023-08-01T11:47:57;99513.81;;;20.18;100.00
6974;BME280;3527;52.376;8.990;2023-08-01T11:50:25;99525.69;;;19.41;100.00
6974;BME280;3527;52.376;8.990;2023-08-01T11:52:52;99519.19;;;18.28;100.00
6974;BME280;3527;52.376;8.990;2023-08-01T11:55:25;99511.66;;;17.87;100.00
6974;BME280;3527;52.376;8.990;2023-08-01T11:57:57;99519.94;;;17.52;100.00
6974;BME280;3527;52.376;8.990;2023-08-01T12:00:27;99529.00;;;17.18;100.00
6974;BME280;3527;52.376;8.990;2023-08-01T12:03:08;99519.88;;;16.85;100.00
6974;BME280;3527;52.376;8.990;2023-08-01T12:05:40;99522.91;;;16.78;100.00
6974;BME280;3527;52.376;8.990;2023-08-01T12:08:14;99520.56;;;16.89;100.00
6974;BME280;3527;52.376;8.990;2023-08-01T12:10:45;99518.63;;;16.86;100.00
6974;BME280;3527;52.376;8.990;2023-08-01T12:13:20;99526.00;;;16.96;100.00
6974;BME280;3527;52.376;8.990;2023-08-01T12:15:49;99536.22;;;17.07;100.00
6974;BME280;3527;52.376;8.990;2023-08-01T12:18:26;99535.56;;;17.15;100.00
6974;BME280;3527;52.376;8.990;2023-08-01T12:20:56;99538.09;;;17.26;100.00
6974;BME280;3527;52.376;8.990;2023-08-01T12:23:23;99556.03;;;17.32;100.00
6974;BME280;3527;52.376;8.990;2023-08-01T12:25:50;99558.66;;;17.52;100.00
6974;BME280;3527;52.376;8.990;2023-08-01T12:28:17;99566.09;;;17.46;100.00
6974;BME280;3527;52.376;8.990;2023-08-01T12:30:44;99566.44;;;17.35;100.00
6974;BME280;3527;52.376;8.990;2023-08-01T12:33:11;99574.03;;;17.22;100.00
6974;BME280;3527;52.376;8.990;2023-08-01T12:35:41;99557.53;;;17.08;100.00
6974;BME280;3527;52.376;8.990;2023-08-01T12:38:09;99560.09;;;17.02;100.00
6974;BME280;3527;52.376;8.990;2023-08-01T12:40:36;99574.81;;;16.93;100.00
6974;BME280;3527;52.376;8.990;2023-08-01T12:43:03;99566.13;;;16.88;100.00
6974;BME280;3527;52.376;8.990;2023-08-01T12:45:38;99569.38;;;16.86;100.00
6974;BME280;3527;52.376;8.990;2023-08-01T12:48:05;99571.84;;;16.84;100.00
6974;BME280;3527;52.376;8.990;2023-08-01T12:50:35;99568.69;;;16.82;100.00
6974;BME280;3527;52.376;8.990;2023-08-01T12:53:02;99565.16;;;16.62;100.00
6974;BME280;3527;52.376;8.990;2023-08-01T12:55:29;99567.38;;;16.71;100.00
6974;BME280;3527;52.376;8.990;2023-08-01T12:57:56;99570.97;;;16.87;100.00
6974;BME280;3527;52.376;8.990;2023-08-01T13:00:23;99567.34;;;17.03;100.00
6974;BME280;3527;52.376;8.990;2023-08-01T13:02:50;99568.66;;;17.27;100.00
6974;BME280;3527;52.376;8.990;2023-08-01T13:05:17;99582.72;;;17.85;100.00
6974;BME280;3527;52.376;8.990;2023-08-01T13:07:44;99571.19;;;18.31;100.00
6974;BME280;3527;52.376;8.990;2023-08-01T13:10:11;99575.72;;;18.66;100.00
6974;BME280;3527;52.376;8.990;2023-08-01T13:12:38;99575.44;;;19.08;100.00
6974;BME280;3527;52.376;8.990;2023-08-01T13:15:05;99574.16;;;19.65;100.00
6974;BME280;3527;52.376;8.990;2023-08-01T13:17:49;99556.25;;;19.68;100.00
6974;BME280;3527;52.376;8.990;2023-08-01T13:20:17;99559.81;;;19.60;100.00
6974;BME280;3527;52.376;8.990;2023-08-01T13:26:19;99560.31;;;19.89;100.00
6974;BME280;3527;52.376;8.990;2023-08-01T13:28:49;99555.06;;;20.19;100.00